Hovedside
METAR-TAF:

METAR-TAF

Lufthavner :

Aalborg lufthavn

Aalborg, Danmark

breddegrad: 57-06N, lengdegrad: 009-51E, høyde over havet: 3 m

Gjeldene værobservasjon

Denne rapporten ble laget for 27 minutter siden, klokken 13:20 UTC
Vind 6 kt fra Sør
Temperatur 12°C
Luftfuktighet 82%
Trykk 1027 hPa
Sikt 10 km eller mer

METAR: EKYT 151320Z AUTO 19006KT 9999NDV FEW060/// BKN085/// 12/09 Q1027

Tid: 14:47 (13:47 UTC)

Varsel

Denne rapporten ble laget for 2 timer og 23 minutter siden, klokken 11:24 UTC
Varsel gyldig fra 15. klokken 12 UTC til 16. klokken 12 UTC
Vind 10 kt fra Sør
Sikt 10 km eller mer
Spredte skyer i en høyde av 5000 ft
Midlertidig
fra 15. klokken 17 UTC til 16. klokken 04 UTC
Sikt: 4000 m
dis
Midlertidig
fra 16. klokken 04 UTC til 16. klokken 12 UTC
Sikt: 4000 m
Brutte skyer i en høyde av 600 ft
dis

TAF: EKYT 151124Z 1512/1612 19010KT 9999 SCT050 TEMPO 1517/1604 4000 BR TEMPO 1604/1612 4000 BR BKN006

Værobservasjoner og værvarsel for over 4000 flyplasser (METAR- og TAF-rapporter).

Tilgjengelige stasjoner er representert av de røde og gule prikkene på kartet.

Hold musepekeren over prikken for å se navnet på stasjonen.

Klikk så for å se værobservasjoner og -varsler.

For å forandre kartet kan du klikke på den grønne knappen med svart kryss for å zoome inn, på den grønne knappen med strek for å zoome ut, eller på de grønne pilene for å se tilstøtende kart.


METAR-TAF: